Ararat, Virginia
Current Conditions -  °F | °C
As of 12:35 AM on Wednesday 22 Oct 2014 (Local Time) from KMWK Reporting Station
Clear Clear  
Wind Chill: 51°   Ceiling: Unl
Heat Index: 51°   Visibility: 10mi
Dew Point: 40°   Wind: 5mph
Humidity: 66%   Direction: 310°NW
Pressure: 30"   Gusts: NA
Location:  36.6°N, 80.51°W
Report Text: KMWK 220435Z AUTO 31004KT 10SM CLR 11/04 A3000 RMK AO2 T01050043
Loading
Personal Weather Stations






























Interactive Weather Map New forecast layout! Learn more

10-Day Weather Forecast

Advertisements
Track Severe Weather on mobile